sensor_id;sensor_type;location;lat;lon;timestamp;pressure;altitude;pressure_sealevel;temperature;humidity
78206;BME280;67480;48.920;12.880;2023-06-10T00:00:39;96732.34;;;18.09;52.52
78206;BME280;67480;48.920;12.880;2023-06-10T00:03:06;96736.25;;;18.11;52.45
78206;BME280;67480;48.920;12.880;2023-06-10T00:05:32;96743.38;;;18.16;52.06
78206;BME280;67480;48.920;12.880;2023-06-10T00:07:58;96739.88;;;18.15;52.19
78206;BME280;67480;48.920;12.880;2023-06-10T00:10:23;96740.53;;;18.09;52.33
78206;BME280;67480;48.920;12.880;2023-06-10T00:12:49;96741.50;;;18.20;51.98
78206;BME280;67480;48.920;12.880;2023-06-10T00:15:14;96740.91;;;18.07;52.22
78206;BME280;67480;48.920;12.880;2023-06-10T00:17:40;96740.63;;;18.16;51.94
78206;BME280;67480;48.920;12.880;2023-06-10T00:20:09;96733.28;;;18.16;52.15
78206;BME280;67480;48.920;12.880;2023-06-10T00:22:37;96740.16;;;18.10;52.32
78206;BME280;67480;48.920;12.880;2023-06-10T00:25:04;96739.78;;;18.12;52.08
78206;BME280;67480;48.920;12.880;2023-06-10T00:27:30;96738.06;;;18.00;52.47
78206;BME280;67480;48.920;12.880;2023-06-10T00:30:01;96731.78;;;17.96;52.60
78206;BME280;67480;48.920;12.880;2023-06-10T00:32:26;96741.00;;;17.88;52.97
78206;BME280;67480;48.920;12.880;2023-06-10T00:34:52;96738.59;;;17.82;53.24
78206;BME280;67480;48.920;12.880;2023-06-10T00:37:17;96739.66;;;17.74;53.33
78206;BME280;67480;48.920;12.880;2023-06-10T00:39:42;96743.34;;;17.62;53.75
78206;BME280;67480;48.920;12.880;2023-06-10T00:42:08;96743.78;;;17.64;53.64
78206;BME280;67480;48.920;12.880;2023-06-10T00:44:35;96741.38;;;17.59;53.49
78206;BME280;67480;48.920;12.880;2023-06-10T00:47:01;96743.66;;;17.57;53.74
78206;BME280;67480;48.920;12.880;2023-06-10T00:49:26;96744.47;;;17.58;53.74
78206;BME280;67480;48.920;12.880;2023-06-10T00:51:52;96743.66;;;17.57;53.68
78206;BME280;67480;48.920;12.880;2023-06-10T00:54:18;96744.69;;;17.49;53.87
78206;BME280;67480;48.920;12.880;2023-06-10T00:56:44;96746.44;;;17.38;53.93
78206;BME280;67480;48.920;12.880;2023-06-10T00:59:11;96744.34;;;17.27;54.23
78206;BME280;67480;48.920;12.880;2023-06-10T01:01:36;96736.97;;;17.28;54.04
78206;BME280;67480;48.920;12.880;2023-06-10T01:04:03;96734.31;;;16.89;55.45
78206;BME280;67480;48.920;12.880;2023-06-10T01:06:50;96727.50;;;16.99;55.20
78206;BME280;67480;48.920;12.880;2023-06-10T01:14:35;96724.56;;;17.07;54.84
78206;BME280;67480;48.920;12.880;2023-06-10T01:17:01;96720.22;;;17.03;55.11
78206;BME280;67480;48.920;12.880;2023-06-10T01:19:28;96726.56;;;17.10;54.73
78206;BME280;67480;48.920;12.880;2023-06-10T01:21:56;96725.59;;;16.99;55.21
78206;BME280;67480;48.920;12.880;2023-06-10T01:24:26;96720.31;;;16.87;55.37
78206;BME280;67480;48.920;12.880;2023-06-10T01:26:53;96724.31;;;16.93;55.43
78206;BME280;67480;48.920;12.880;2023-06-10T01:29:30;96727.91;;;16.78;55.56
78206;BME280;67480;48.920;12.880;2023-06-10T01:32:08;96727.69;;;16.86;55.28
78206;BME280;67480;48.920;12.880;2023-06-10T01:34:36;96729.59;;;16.86;55.28
78206;BME280;67480;48.920;12.880;2023-06-10T01:37:04;96729.25;;;16.87;55.34
78206;BME280;67480;48.920;12.880;2023-06-10T01:39:31;96728.09;;;16.88;55.44
78206;BME280;67480;48.920;12.880;2023-06-10T01:41:57;96722.97;;;16.83;55.51
78206;BME280;67480;48.920;12.880;2023-06-10T01:44:23;96721.09;;;16.87;55.11
78206;BME280;67480;48.920;12.880;2023-06-10T01:46:48;96713.28;;;16.86;55.72
78206;BME280;67480;48.920;12.880;2023-06-10T01:49:14;96721.81;;;16.84;55.91
78206;BME280;67480;48.920;12.880;2023-06-10T01:51:39;96718.97;;;16.77;55.63
78206;BME280;67480;48.920;12.880;2023-06-10T01:54:05;96722.75;;;16.72;55.68
78206;BME280;67480;48.920;12.880;2023-06-10T01:56:31;96727.41;;;16.72;55.77
78206;BME280;67480;48.920;12.880;2023-06-10T01:58:56;96733.50;;;16.65;55.31
78206;BME280;67480;48.920;12.880;2023-06-10T02:01:26;96724.50;;;16.61;55.90
78206;BME280;67480;48.920;12.880;2023-06-10T02:03:52;96717.28;;;16.49;56.41
78206;BME280;67480;48.920;12.880;2023-06-10T02:06:17;96725.22;;;16.39;56.73
78206;BME280;67480;48.920;12.880;2023-06-10T02:08:42;96730.44;;;16.47;56.38
78206;BME280;67480;48.920;12.880;2023-06-10T02:11:08;96734.22;;;16.43;56.52
78206;BME280;67480;48.920;12.880;2023-06-10T02:13:33;96730.88;;;16.49;56.81
78206;BME280;67480;48.920;12.880;2023-06-10T02:15:58;96732.94;;;16.56;56.51
78206;BME280;67480;48.920;12.880;2023-06-10T02:18:25;96728.78;;;16.43;56.43
78206;BME280;67480;48.920;12.880;2023-06-10T02:20:52;96719.63;;;16.31;56.62
78206;BME280;67480;48.920;12.880;2023-06-10T02:23:17;96728.38;;;16.41;56.34
78206;BME280;67480;48.920;12.880;2023-06-10T02:25:42;96722.28;;;16.47;56.14
78206;BME280;67480;48.920;12.880;2023-06-10T02:28:08;96717.63;;;16.48;56.26
78206;BME280;67480;48.920;12.880;2023-06-10T02:30:33;96717.69;;;16.51;56.19
78206;BME280;67480;48.920;12.880;2023-06-10T02:32:58;96723.13;;;16.51;56.32
78206;BME280;67480;48.920;12.880;2023-06-10T02:35:24;96715.00;;;16.51;55.96
78206;BME280;67480;48.920;12.880;2023-06-10T02:37:49;96725.50;;;16.53;56.02
78206;BME280;67480;48.920;12.880;2023-06-10T02:40:15;96717.22;;;16.46;56.72
78206;BME280;67480;48.920;12.880;2023-06-10T02:42:41;96717.63;;;16.48;56.61
78206;BME280;67480;48.920;12.880;2023-06-10T02:45:06;96714.69;;;16.37;57.10
78206;BME280;67480;48.920;12.880;2023-06-10T02:47:32;96720.72;;;16.46;56.61
78206;BME280;67480;48.920;12.880;2023-06-10T02:49:57;96725.91;;;16.35;56.28
78206;BME280;67480;48.920;12.880;2023-06-10T02:52:23;96723.31;;;16.39;56.56
78206;BME280;67480;48.920;12.880;2023-06-10T02:54:48;96715.16;;;16.39;56.50
78206;BME280;67480;48.920;12.880;2023-06-10T02:57:13;96725.56;;;16.37;56.32
78206;BME280;67480;48.920;12.880;2023-06-10T02:59:39;96725.41;;;16.30;56.36
78206;BME280;67480;48.920;12.880;2023-06-10T03:02:05;96723.31;;;16.23;56.90
78206;BME280;67480;48.920;12.880;2023-06-10T03:04:30;96720.84;;;16.14;57.22
78206;BME280;67480;48.920;12.880;2023-06-10T03:06:56;96725.91;;;16.16;57.37
78206;BME280;67480;48.920;12.880;2023-06-10T03:09:22;96731.97;;;16.29;56.80
78206;BME280;67480;48.920;12.880;2023-06-10T03:11:47;96729.44;;;16.36;56.65
78206;BME280;67480;48.920;12.880;2023-06-10T03:14:12;96725.56;;;16.37;56.75
78206;BME280;67480;48.920;12.880;2023-06-10T03:16:38;96720.59;;;16.39;56.74
78206;BME280;67480;48.920;12.880;2023-06-10T03:19:07;96731.34;;;16.35;56.90
78206;BME280;67480;48.920;12.880;2023-06-10T03:21:34;96725.41;;;16.30;57.05
78206;BME280;67480;48.920;12.880;2023-06-10T03:24:00;96720.66;;;16.43;56.51
78206;BME280;67480;48.920;12.880;2023-06-10T03:26:26;96725.22;;;16.39;56.68
78206;BME280;67480;48.920;12.880;2023-06-10T03:28:52;96723.31;;;16.23;57.51
78206;BME280;67480;48.920;12.880;2023-06-10T03:31:18;96720.97;;;16.22;57.39
78206;BME280;67480;48.920;12.880;2023-06-10T03:33:43;96720.50;;;16.35;57.21
78206;BME280;67480;48.920;12.880;2023-06-10T03:36:09;96732.56;;;16.38;57.14
78206;BME280;67480;48.920;12.880;2023-06-10T03:38:35;96727.28;;;16.45;56.73
78206;BME280;67480;48.920;12.880;2023-06-10T03:41:00;96725.44;;;16.49;56.70
78206;BME280;67480;48.920;12.880;2023-06-10T03:43:26;96727.06;;;16.54;56.39
78206;BME280;67480;48.920;12.880;2023-06-10T03:45:52;96732.22;;;16.40;56.89
78206;BME280;67480;48.920;12.880;2023-06-10T03:48:18;96733.50;;;16.46;56.62
78206;BME280;67480;48.920;12.880;2023-06-10T03:50:43;96730.84;;;16.30;56.94
78206;BME280;67480;48.920;12.880;2023-06-10T03:53:08;96738.88;;;16.42;56.66
78206;BME280;67480;48.920;12.880;2023-06-10T03:55:34;96742.50;;;16.50;56.80
78206;BME280;67480;48.920;12.880;2023-06-10T03:58:00;96732.56;;;16.38;56.84
78206;BME280;67480;48.920;12.880;2023-06-10T04:00:25;96740.94;;;16.49;56.62
78206;BME280;67480;48.920;12.880;2023-06-10T04:02:50;96743.22;;;16.47;56.59
78206;BME280;67480;48.920;12.880;2023-06-10T04:05:19;96747.16;;;16.49;56.87
78206;BME280;67480;48.920;12.880;2023-06-10T04:07:47;96742.50;;;16.50;56.95
78206;BME280;67480;48.920;12.880;2023-06-10T04:10:13;96741.59;;;16.42;57.17
78206;BME280;67480;48.920;12.880;2023-06-10T04:12:39;96743.56;;;16.45;57.18
78206;BME280;67480;48.920;12.880;2023-06-10T04:15:05;96742.88;;;16.48;57.37
78206;BME280;67480;48.920;12.880;2023-06-10T04:17:31;96747.03;;;16.42;57.77
78206;BME280;67480;48.920;12.880;2023-06-10T04:19:57;96739.72;;;16.46;57.75
78206;BME280;67480;48.920;12.880;2023-06-10T04:22:23;96748.94;;;16.61;57.36
78206;BME280;67480;48.920;12.880;2023-06-10T04:24:48;96748.94;;;16.42;57.74
78206;BME280;67480;48.920;12.880;2023-06-10T04:27:14;96743.03;;;16.55;57.84
78206;BME280;67480;48.920;12.880;2023-06-10T04:29:39;96746.56;;;16.60;57.63
78206;BME280;67480;48.920;12.880;2023-06-10T04:32:06;96749.81;;;16.65;57.39
78206;BME280;67480;48.920;12.880;2023-06-10T04:34:33;96758.50;;;16.74;57.29
78206;BME280;67480;48.920;12.880;2023-06-10T04:36:58;96752.44;;;16.81;57.29
78206;BME280;67480;48.920;12.880;2023-06-10T04:39:23;96755.06;;;16.78;57.58
78206;BME280;67480;48.920;12.880;2023-06-10T04:41:49;96755.94;;;16.82;57.36
78206;BME280;67480;48.920;12.880;2023-06-10T04:44:14;96758.34;;;16.87;56.82
78206;BME280;67480;48.920;12.880;2023-06-10T04:46:40;96749.50;;;16.70;56.73
78206;BME280;67480;48.920;12.880;2023-06-10T04:49:05;96763.38;;;16.85;57.13
78206;BME280;67480;48.920;12.880;2023-06-10T04:51:31;96768.00;;;16.84;57.46
78206;BME280;67480;48.920;12.880;2023-06-10T04:53:59;96769.94;;;16.84;57.23
78206;BME280;67480;48.920;12.880;2023-06-10T04:56:29;96769.53;;;16.82;57.44
78206;BME280;67480;48.920;12.880;2023-06-10T04:58:56;96772.97;;;16.79;57.71
78206;BME280;67480;48.920;12.880;2023-06-10T05:01:21;96768.31;;;16.79;57.87
78206;BME280;67480;48.920;12.880;2023-06-10T05:03:46;96771.47;;;16.81;58.09
78206;BME280;67480;48.920;12.880;2023-06-10T05:06:12;96771.53;;;16.85;57.90
78206;BME280;67480;48.920;12.880;2023-06-10T05:08:37;96782.19;;;16.74;58.50
78206;BME280;67480;48.920;12.880;2023-06-10T05:11:02;96779.16;;;16.79;58.34
78206;BME280;67480;48.920;12.880;2023-06-10T05:13:28;96778.97;;;16.88;58.38
78206;BME280;67480;48.920;12.880;2023-06-10T05:15:53;96776.59;;;16.86;58.90
78206;BME280;67480;48.920;12.880;2023-06-10T05:18:18;96783.88;;;16.82;58.90
78206;BME280;67480;48.920;12.880;2023-06-10T05:20:43;96780.09;;;16.87;58.47
78206;BME280;67480;48.920;12.880;2023-06-10T05:23:09;96782.06;;;16.67;59.49
78206;BME280;67480;48.920;12.880;2023-06-10T05:25:34;96787.53;;;16.90;58.94
78206;BME280;67480;48.920;12.880;2023-06-10T05:28:00;96790.19;;;17.06;58.26
78206;BME280;67480;48.920;12.880;2023-06-10T05:30:25;96789.59;;;16.97;58.83
78206;BME280;67480;48.920;12.880;2023-06-10T05:32:51;96783.09;;;17.01;58.43
78206;BME280;67480;48.920;12.880;2023-06-10T05:35:18;96792.53;;;17.07;58.66
78206;BME280;67480;48.920;12.880;2023-06-10T05:37:43;96793.56;;;17.22;58.05
78206;BME280;67480;48.920;12.880;2023-06-10T05:40:09;96790.16;;;17.25;58.53
78206;BME280;67480;48.920;12.880;2023-06-10T05:42:35;96791.88;;;17.34;58.35
78206;BME280;67480;48.920;12.880;2023-06-10T05:45:01;96795.91;;;17.43;57.84
78206;BME280;67480;48.920;12.880;2023-06-10T05:47:26;96789.44;;;17.52;57.45
78206;BME280;67480;48.920;12.880;2023-06-10T05:49:51;96787.44;;;17.49;57.79
78206;BME280;67480;48.920;12.880;2023-06-10T05:52:17;96791.91;;;17.37;57.98
78206;BME280;67480;48.920;12.880;2023-06-10T05:54:43;96791.97;;;17.41;58.04
78206;BME280;67480;48.920;12.880;2023-06-10T05:57:08;96785.19;;;17.54;57.78
78206;BME280;67480;48.920;12.880;2023-06-10T05:59:34;96783.59;;;17.50;58.02
78206;BME280;67480;48.920;12.880;2023-06-10T06:01:59;96778.63;;;17.55;58.14
78206;BME280;67480;48.920;12.880;2023-06-10T06:04:24;96778.06;;;17.69;57.71
78206;BME280;67480;48.920;12.880;2023-06-10T06:06:50;96783.25;;;17.78;57.68
78206;BME280;67480;48.920;12.880;2023-06-10T06:09:15;96775.84;;;17.78;58.09
78206;BME280;67480;48.920;12.880;2023-06-10T06:11:41;96789.78;;;17.73;57.63
78206;BME280;67480;48.920;12.880;2023-06-10T06:14:06;96785.91;;;17.74;58.31
78206;BME280;67480;48.920;12.880;2023-06-10T06:16:32;96790.41;;;17.90;58.14
78206;BME280;67480;48.920;12.880;2023-06-10T06:18:57;96795.00;;;18.09;58.30
78206;BME280;67480;48.920;12.880;2023-06-10T06:21:22;96790.47;;;18.16;57.48
78206;BME280;67480;48.920;12.880;2023-06-10T06:23:48;96790.16;;;18.22;56.38
78206;BME280;67480;48.920;12.880;2023-06-10T06:26:13;96790.34;;;18.36;56.63
78206;BME280;67480;48.920;12.880;2023-06-10T06:28:38;96787.38;;;18.48;56.34
78206;BME280;67480;48.920;12.880;2023-06-10T06:31:04;96790.56;;;18.54;56.20
78206;BME280;67480;48.920;12.880;2023-06-10T06:33:29;96789.13;;;18.64;55.97
78206;BME280;67480;48.920;12.880;2023-06-10T06:35:55;96784.63;;;18.79;55.79
78206;BME280;67480;48.920;12.880;2023-06-10T06:38:20;96787.94;;;18.95;55.64
78206;BME280;67480;48.920;12.880;2023-06-10T06:40:46;96791.28;;;19.15;55.99
78206;BME280;67480;48.920;12.880;2023-06-10T06:43:11;96795.81;;;19.41;55.17
78206;BME280;67480;48.920;12.880;2023-06-10T06:45:36;96792.88;;;19.64;55.78
78206;BME280;67480;48.920;12.880;2023-06-10T06:48:02;96789.16;;;19.80;52.28
78206;BME280;67480;48.920;12.880;2023-06-10T06:50:27;96793.88;;;19.87;51.48
78206;BME280;67480;48.920;12.880;2023-06-10T06:52:52;96804.16;;;20.04;50.84
78206;BME280;67480;48.920;12.880;2023-06-10T06:55:18;96804.66;;;20.20;49.98
78206;BME280;67480;48.920;12.880;2023-06-10T06:57:43;96802.41;;;20.41;50.89
78206;BME280;67480;48.920;12.880;2023-06-10T07:00:09;96809.97;;;20.62;50.47
78206;BME280;67480;48.920;12.880;2023-06-10T07:02:35;96812.72;;;20.69;50.07
78206;BME280;67480;48.920;12.880;2023-06-10T07:05:00;96810.78;;;20.69;50.55
78206;BME280;67480;48.920;12.880;2023-06-10T07:07:26;96808.06;;;20.73;50.70
78206;BME280;67480;48.920;12.880;2023-06-10T07:09:52;96813.16;;;20.74;49.80
78206;BME280;67480;48.920;12.880;2023-06-10T07:12:17;96813.16;;;20.78;49.90
78206;BME280;67480;48.920;12.880;2023-06-10T07:14:43;96821.75;;;20.80;49.16
78206;BME280;67480;48.920;12.880;2023-06-10T07:17:09;96814.75;;;20.90;49.42
78206;BME280;67480;48.920;12.880;2023-06-10T07:19:34;96817.09;;;20.91;49.00
78206;BME280;67480;48.920;12.880;2023-06-10T07:21:59;96811.22;;;20.82;48.41
78206;BME280;67480;48.920;12.880;2023-06-10T07:24:25;96814.72;;;20.79;48.82
78206;BME280;67480;48.920;12.880;2023-06-10T07:26:50;96822.81;;;20.58;49.75
78206;BME280;67480;48.920;12.880;2023-06-10T07:29:15;96824.28;;;20.41;50.64
78206;BME280;67480;48.920;12.880;2023-06-10T07:31:41;96821.44;;;20.26;51.93
78206;BME280;67480;48.920;12.880;2023-06-10T07:34:07;96823.72;;;20.13;52.47
78206;BME280;67480;48.920;12.880;2023-06-10T07:36:32;96821.28;;;20.01;53.14
78206;BME280;67480;48.920;12.880;2023-06-10T07:38:57;96832.50;;;19.89;53.85
78206;BME280;67480;48.920;12.880;2023-06-10T07:41:23;96832.97;;;19.98;53.89
78206;BME280;67480;48.920;12.880;2023-06-10T07:43:51;96834.25;;;20.11;53.94
78206;BME280;67480;48.920;12.880;2023-06-10T07:46:20;96843.22;;;20.12;52.79
78206;BME280;67480;48.920;12.880;2023-06-10T07:48:45;96838.94;;;20.11;52.86
78206;BME280;67480;48.920;12.880;2023-06-10T07:51:11;96840.72;;;19.92;53.57
78206;BME280;67480;48.920;12.880;2023-06-10T07:53:36;96844.84;;;19.72;53.87
78206;BME280;67480;48.920;12.880;2023-06-10T07:56:01;96846.19;;;19.51;54.98
78206;BME280;67480;48.920;12.880;2023-06-10T07:58:27;96846.31;;;19.62;54.78
78206;BME280;67480;48.920;12.880;2023-06-10T08:00:53;96847.91;;;19.67;54.39
78206;BME280;67480;48.920;12.880;2023-06-10T08:03:19;96849.84;;;19.66;54.38
78206;BME280;67480;48.920;12.880;2023-06-10T08:05:44;96843.75;;;19.80;54.48
78206;BME280;67480;48.920;12.880;2023-06-10T08:08:09;96839.41;;;19.75;54.21
78206;BME280;67480;48.920;12.880;2023-06-10T08:10:35;96853.94;;;19.83;54.00
78206;BME280;67480;48.920;12.880;2023-06-10T08:13:00;96854.38;;;19.92;54.34
78206;BME280;67480;48.920;12.880;2023-06-10T08:15:25;96847.56;;;20.20;53.40
78206;BME280;67480;48.920;12.880;2023-06-10T08:17:51;96850.56;;;20.60;52.16
78206;BME280;67480;48.920;12.880;2023-06-10T08:20:17;96847.97;;;20.88;50.66
78206;BME280;67480;48.920;12.880;2023-06-10T08:22:43;96849.28;;;21.27;50.69
78206;BME280;67480;48.920;12.880;2023-06-10T08:25:08;96853.16;;;21.22;49.04
78206;BME280;67480;48.920;12.880;2023-06-10T08:27:33;96864.50;;;21.21;49.10
78206;BME280;67480;48.920;12.880;2023-06-10T08:29:59;96867.22;;;21.21;48.35
78206;BME280;67480;48.920;12.880;2023-06-10T08:32:25;96865.31;;;21.21;49.56
78206;BME280;67480;48.920;12.880;2023-06-10T08:34:51;96861.44;;;21.37;49.36
78206;BME280;67480;48.920;12.880;2023-06-10T08:37:16;96859.94;;;21.68;49.23
78206;BME280;67480;48.920;12.880;2023-06-10T08:39:41;96866.59;;;21.89;46.83
78206;BME280;67480;48.920;12.880;2023-06-10T08:42:25;96858.41;;;22.25;47.97
78206;BME280;67480;48.920;12.880;2023-06-10T08:44:54;96874.44;;;22.44;46.55
78206;BME280;67480;48.920;12.880;2023-06-10T08:47:29;96866.63;;;22.28;45.47
78206;BME280;67480;48.920;12.880;2023-06-10T08:49:56;96868.22;;;22.11;45.92
78206;BME280;67480;48.920;12.880;2023-06-10T08:52:29;96872.09;;;21.92;46.82
78206;BME280;67480;48.920;12.880;2023-06-10T08:55:03;96866.19;;;21.79;47.52
78206;BME280;67480;48.920;12.880;2023-06-10T08:57:29;96876.78;;;21.70;47.88
78206;BME280;67480;48.920;12.880;2023-06-10T08:59:57;96875.16;;;21.58;47.53
78206;BME280;67480;48.920;12.880;2023-06-10T09:02:23;96871.25;;;21.45;48.01
78206;BME280;67480;48.920;12.880;2023-06-10T09:04:49;96870.09;;;21.57;49.16
78206;BME280;67480;48.920;12.880;2023-06-10T09:07:15;96878.31;;;21.68;48.80
78206;BME280;67480;48.920;12.880;2023-06-10T09:09:42;96871.69;;;21.72;48.18
78206;BME280;67480;48.920;12.880;2023-06-10T09:12:08;96868.56;;;21.92;47.56
78206;BME280;67480;48.920;12.880;2023-06-10T09:14:33;96875.63;;;21.96;46.73
78206;BME280;67480;48.920;12.880;2023-06-10T09:16:59;96874.03;;;21.99;46.75
78206;BME280;67480;48.920;12.880;2023-06-10T09:19:28;96872.91;;;22.18;46.46
78206;BME280;67480;48.920;12.880;2023-06-10T09:21:54;96874.44;;;22.05;46.80
78206;BME280;67480;48.920;12.880;2023-06-10T09:24:24;96870.94;;;22.18;46.52
78206;BME280;67480;48.920;12.880;2023-06-10T09:26:50;96872.09;;;22.28;46.45
78206;BME280;67480;48.920;12.880;2023-06-10T09:29:16;96877.09;;;22.77;45.48
78206;BME280;67480;48.920;12.880;2023-06-10T09:31:43;96875.41;;;23.15;44.73
78206;BME280;67480;48.920;12.880;2023-06-10T09:36:35;96872.25;;;23.17;45.61
78206;BME280;67480;48.920;12.880;2023-06-10T09:39:01;96867.81;;;23.48;44.31
78206;BME280;67480;48.920;12.880;2023-06-10T09:41:34;96878.97;;;23.82;43.15
78206;BME280;67480;48.920;12.880;2023-06-10T09:44:00;96867.06;;;23.40;43.45
78206;BME280;67480;48.920;12.880;2023-06-10T09:46:30;96872.97;;;23.35;44.79
78206;BME280;67480;48.920;12.880;2023-06-10T09:48:57;96869.50;;;23.24;44.59
78206;BME280;67480;48.920;12.880;2023-06-10T09:51:22;96874.69;;;23.00;44.88
78206;BME280;67480;48.920;12.880;2023-06-10T09:53:49;96868.16;;;23.54;43.41
78206;BME280;67480;48.920;12.880;2023-06-10T09:56:15;96869.69;;;23.62;44.25
78206;BME280;67480;48.920;12.880;2023-06-10T09:58:41;96871.25;;;23.63;42.32
78206;BME280;67480;48.920;12.880;2023-06-10T10:01:10;96869.03;;;23.36;43.21
78206;BME280;67480;48.920;12.880;2023-06-10T10:03:43;96875.84;;;23.03;43.96
78206;BME280;67480;48.920;12.880;2023-06-10T10:06:09;96877.03;;;23.02;44.64
78206;BME280;67480;48.920;12.880;2023-06-10T10:08:34;96879.09;;;22.80;45.71
78206;BME280;67480;48.920;12.880;2023-06-10T10:11:00;96890.84;;;22.66;49.21
78206;BME280;67480;48.920;12.880;2023-06-10T10:13:27;96888.88;;;22.59;50.76
78206;BME280;67480;48.920;12.880;2023-06-10T10:15:54;96886.19;;;22.41;51.41
78206;BME280;67480;48.920;12.880;2023-06-10T10:18:24;96879.53;;;22.17;51.81
78206;BME280;67480;48.920;12.880;2023-06-10T10:20:54;96885.00;;;22.02;52.95
78206;BME280;67480;48.920;12.880;2023-06-10T10:23:26;96881.47;;;21.84;54.48
78206;BME280;67480;48.920;12.880;2023-06-10T10:25:54;96877.97;;;21.80;54.73
78206;BME280;67480;48.920;12.880;2023-06-10T10:28:21;96878.31;;;21.60;56.01
78206;BME280;67480;48.920;12.880;2023-06-10T10:30:51;96876.75;;;21.52;56.59
78206;BME280;67480;48.920;12.880;2023-06-10T10:33:31;96876.72;;;21.45;56.82
78206;BME280;67480;48.920;12.880;2023-06-10T10:35:58;96874.75;;;21.42;57.26
78206;BME280;67480;48.920;12.880;2023-06-10T10:38:24;96882.97;;;21.38;57.66
78206;BME280;67480;48.920;12.880;2023-06-10T10:40:50;96869.66;;;21.37;59.34
78206;BME280;67480;48.920;12.880;2023-06-10T10:43:16;96871.19;;;21.34;58.76
78206;BME280;67480;48.920;12.880;2023-06-10T10:45:42;96863.72;;;21.27;59.26
78206;BME280;67480;48.920;12.880;2023-06-10T10:48:08;96871.53;;;21.18;59.85
78206;BME280;67480;48.920;12.880;2023-06-10T10:50:37;96862.97;;;21.27;60.26
78206;BME280;67480;48.920;12.880;2023-06-10T10:53:03;96868.53;;;21.52;60.29
78206;BME280;67480;48.920;12.880;2023-06-10T10:55:29;96868.19;;;21.90;60.01
78206;BME280;67480;48.920;12.880;2023-06-10T11:00:44;96863.66;;;23.15;56.43
78206;BME280;67480;48.920;12.880;2023-06-10T11:03:15;96860.94;;;23.78;54.27
78206;BME280;67480;48.920;12.880;2023-06-10T11:05:44;96860.03;;;24.44;51.47
78206;BME280;67480;48.920;12.880;2023-06-10T11:08:13;96860.75;;;25.21;47.69
78206;BME280;67480;48.920;12.880;2023-06-10T11:10:51;96853.81;;;25.67;45.98
78206;BME280;67480;48.920;12.880;2023-06-10T11:13:19;96852.06;;;26.04;42.38
78206;BME280;67480;48.920;12.880;2023-06-10T11:15:49;96851.47;;;26.16;42.86
78206;BME280;67480;48.920;12.880;2023-06-10T11:18:35;96854.50;;;25.75;44.97
78206;BME280;67480;48.920;12.880;2023-06-10T11:21:05;96853.84;;;25.91;45.33
78206;BME280;67480;48.920;12.880;2023-06-10T11:23:49;96851.97;;;25.84;45.30
78206;BME280;67480;48.920;12.880;2023-06-10T11:26:21;96850.50;;;25.52;44.53
78206;BME280;67480;48.920;12.880;2023-06-10T11:31:30;96853.03;;;24.32;45.61
78206;BME280;67480;48.920;12.880;2023-06-10T11:33:59;96837.00;;;23.82;46.83
78206;BME280;67480;48.920;12.880;2023-06-10T11:36:26;96839.97;;;23.42;46.99
78206;BME280;67480;48.920;12.880;2023-06-10T11:38:56;96835.63;;;23.52;48.98
78206;BME280;67480;48.920;12.880;2023-06-10T11:41:21;96834.06;;;23.47;47.08
78206;BME280;67480;48.920;12.880;2023-06-10T11:43:48;96835.22;;;23.54;49.03
78206;BME280;67480;48.920;12.880;2023-06-10T11:46:14;96841.03;;;24.53;48.82
78206;BME280;67480;48.920;12.880;2023-06-10T11:48:48;96835.06;;;25.58;43.73
78206;BME280;67480;48.920;12.880;2023-06-10T11:51:13;96843.97;;;26.84;40.55
78206;BME280;67480;48.920;12.880;2023-06-10T11:53:39;96850.25;;;29.28;37.23
78206;BME280;67480;48.920;12.880;2023-06-10T11:56:04;96847.03;;;32.61;31.87
78206;BME280;67480;48.920;12.880;2023-06-10T11:58:30;96852.72;;;34.47;27.11
78206;BME280;67480;48.920;12.880;2023-06-10T12:00:55;96846.56;;;32.90;28.57
78206;BME280;67480;48.920;12.880;2023-06-10T12:03:23;96838.56;;;29.75;33.76
78206;BME280;67480;48.920;12.880;2023-06-10T12:05:59;96833.88;;;27.14;36.21
78206;BME280;67480;48.920;12.880;2023-06-10T12:08:25;96836.84;;;26.63;39.02
78206;BME280;67480;48.920;12.880;2023-06-10T12:10:51;96835.91;;;26.50;39.23
78206;BME280;67480;48.920;12.880;2023-06-10T12:13:17;96837.16;;;26.25;39.95
78206;BME280;67480;48.920;12.880;2023-06-10T12:15:46;96833.69;;;25.94;40.13
78206;BME280;67480;48.920;12.880;2023-06-10T12:18:23;96828.88;;;25.51;42.75
78206;BME280;67480;48.920;12.880;2023-06-10T12:20:50;96834.88;;;25.42;42.70
78206;BME280;67480;48.920;12.880;2023-06-10T12:23:17;96835.94;;;26.70;42.55
78206;BME280;67480;48.920;12.880;2023-06-10T12:25:53;96838.94;;;28.05;38.85
78206;BME280;67480;48.920;12.880;2023-06-10T12:28:23;96852.53;;;29.46;36.73
78206;BME280;67480;48.920;12.880;2023-06-10T12:30:49;96847.38;;;31.86;33.01
78206;BME280;67480;48.920;12.880;2023-06-10T12:33:19;96851.09;;;34.07;28.15
78206;BME280;67480;48.920;12.880;2023-06-10T12:35:52;96847.06;;;35.10;28.68
78206;BME280;67480;48.920;12.880;2023-06-10T12:38:21;96846.97;;;34.65;28.27
78206;BME280;67480;48.920;12.880;2023-06-10T12:40:47;96849.22;;;34.37;28.43
78206;BME280;67480;48.920;12.880;2023-06-10T12:43:13;96841.88;;;33.06;29.60
78206;BME280;67480;48.920;12.880;2023-06-10T12:45:39;96834.19;;;32.27;31.89
78206;BME280;67480;48.920;12.880;2023-06-10T12:50:43;96830.56;;;29.77;35.90
78206;BME280;67480;48.920;12.880;2023-06-10T12:53:10;96828.09;;;29.02;36.96
78206;BME280;67480;48.920;12.880;2023-06-10T12:55:37;96825.94;;;28.18;37.36
78206;BME280;67480;48.920;12.880;2023-06-10T12:58:02;96823.38;;;27.62;38.39
78206;BME280;67480;48.920;12.880;2023-06-10T13:00:28;96819.78;;;27.28;39.58
78206;BME280;67480;48.920;12.880;2023-06-10T13:03:00;96825.25;;;27.12;38.09